VIRTUAL NORWEGIAN AEROCLUB

VIRTUAL NORWEGIAN AEROCLUB! A new look to our va.




 METAR AND TAF INFORMATION
METAR FOR ESSA
ADDS - METARS form results

(1444 UTC 19 September 2020)
Data provider http://aviationweather.gov/metar/data/
 
METAR text: ESSA 191420Z 34008KT CAVOK 15/02 Q1023 NOSIG
Conditions at: ESSA (STOCKHOLM/ARLAND, SE) observed 1420 UTC 19 September 2020
Temperature: 15.0°C (59°F)
Dewpoint: 2.0°C (36°F) [RH = 41%]
Pressure (altimeter): 30.21 inches Hg (1023.0 mb)
Winds: from the NNW (340 degrees) at 9 MPH (8 knots; 4.1 m/s)
Visibility: 6 or more miles (10+ km)
Ceiling: ceiling and visibility are OK
Clouds: unknown
Weather: no significant weather observed at this time

METAR text: ESSA 191350Z 32007KT 000V360 CAVOK 15/02 Q1023 NOSIG
Conditions at: ESSA (STOCKHOLM/ARLAND, SE) observed 1350 UTC 19 September 2020
Temperature: 15.0°C (59°F)
Dewpoint: 2.0°C (36°F) [RH = 41%]
Pressure (altimeter): 30.21 inches Hg (1023.0 mb)
Winds: from the NW (320 degrees) at 8 MPH (7 knots; 3.6 m/s)
Visibility: 6 or more miles (10+ km)
Ceiling: ceiling and visibility are OK
Clouds: unknown
Weather: no significant weather observed at this time

Forecast for: ESSA (STOCKHOLM/ARLAND, SE)
Text: TAF ESSA 191130Z 1912/2012 31010KT CAVOK
Forecast period: 1200 UTC 19 September 2020 to 1200 UTC 20 September 2020
Forecast type: FROM: standard forecast or significant change
Winds: from the NW (310 degrees) at 12 MPH (10 knots; 5.1 m/s)
Visibility: 6 or more miles (10+ km)
Ceiling: unknown
Clouds: missing
Weather: NSW  (no significant weather)

 AIRPORT MAP

 RUNWAY INFORMATION
Runway 01L Runway length 10830 ft Runway width 148 ft
Runway elevation 98 ft Runway displaced threshold 0 ft Runway heading 10
Runway 19R Runway length 10830 ft Runway width 148 ft
Runway elevation 118 ft Runway displaced threshold 0 ft Runway heading 190
Runway 01R Runway length 8201 ft Runway width 148 ft
Runway elevation 137 ft Runway displaced threshold 0 ft Runway heading 10
Runway 19L Runway length 8201 ft Runway width 148 ft
Runway elevation 98 ft Runway displaced threshold 0 ft Runway heading 190
Runway 08 Runway length 8202 ft Runway width 148 ft
Runway elevation 108 ft Runway displaced threshold 0 ft Runway heading 76
Runway 26 Runway length 8202 ft Runway width 148 ft
Runway elevation 124 ft Runway displaced threshold 0 ft Runway heading 256

 AIRPORT FREQUENCIES
Type APP Name STOCKHOLM Frequency 123.75 MHZ
Type ATIS Name ATIS Frequency 119 MHZ
Type CLD Name CLNC DEL Frequency 121.825 MHZ
Type GND Name GND Frequency 121.7 MHZ
Type PMSV Name MET OFFICE Frequency 122.6 MHZ
Type TWR Name TWR Frequency 118.5 MHZ

 AIRPORT NEAR NAVIGATION AIDS
Type VOR-DME Name Arlanda Frequency 116000 KHZ
Type NDB Name Arlanda Frequency 352 KHZ
Type NDB Name Arlanda Frequency 360 KHZ
Type NDB Name Arlanda Frequency 404 KHZ
Type NDB Name Arlanda Frequency 370 KHZ